Valley Peak, Santa Cruz Island Reserve, California Weather observations

Data are for 10 minute period ending at time listed.
 Day   Time   Solar   Ave.   Ave.  Ave.  Vector  Max.   Baro.   Total    
  of    of     Rad.   Air    Rel.  Wind   Wind   Wind  Press.  Precip.   
Year   Day            Temp.  Hum.  Speed  Dir.   Gust                    
2016   (PST)  Kw/m2    F      %     mph   deg.    mph    mb.     in.     
-------------------------------------------------------------------------
 341   12:40   0.20   56.6    75    2.3    58     4.2   964.9    0.00 
 341   12:50   0.34   57.3    74    3.9    53     7.0   964.8    0.00 
 341   13:00   0.22   56.9    73    6.2    39     8.7   964.9    0.00 
 341   13:10   0.34   55.5    76    6.0    44     8.8   964.8    0.00 
 341   13:20   0.40   56.0    76    5.7    44     8.0   964.7    0.00 
 341   13:30   0.39   56.8    73    5.5    47     7.5   964.8    0.00 
 341   13:40   0.33   57.4    72    4.5    47     6.2   964.7    0.00 
 341   13:50   0.24   57.9    71    3.3    47     5.5   964.7    0.00 
 341   14:00   0.33   58.2    70    2.8    55     5.8   964.7    0.00 
 341   14:10   0.36   59.1    68    3.4    36     6.8   964.6    0.00 
 341   14:20   0.31   59.5    67    3.7    44     6.6   964.5    0.00 
 341   14:30   0.28   59.0    66    3.9    44     7.8   964.6    0.00 
 341   14:40   0.25   59.7    64    3.2    40     6.1   964.7    0.00 
 341   14:50   0.21   59.1    64    1.6    37     3.4   964.8    0.00 
 341   15:00   0.23   57.0    68    2.9   249     6.9   964.8    0.00 
 341   15:10   0.20   56.9    63    3.0   308     5.6   964.7    0.00 
 341   15:20   0.18   56.6    56    2.6   328     6.6   964.8    0.00 
 341   15:30   0.13   55.6    53    4.6   330     7.5   964.9    0.00 
 341   15:40   0.09   55.0    55    1.8   351     5.9   964.9    0.00 
 341   15:50   0.08   54.6    56    3.6   305     7.7   965.0    0.00 
 341   16:00   0.06   54.1    66    1.1   289     3.4   965.0    0.00 
 341   16:10   0.04   53.5    63    0.7    92     3.9   965.1    0.00 
 341   16:20   0.03   53.0    77    4.6   202     9.2   965.2    0.00 
 341   16:30   0.02   51.1    77    6.0   236     8.9   965.2    0.00 
 341   16:40   0.00   49.9    79    5.0   246     8.6   965.2    0.00 
 341   16:50   0.00   50.0    72    2.6   259     4.5   965.2    0.00 
 341   17:00   0.00   50.6    65    4.2   339     9.2   965.2    0.00 
 341   17:10   0.00   51.0    61    3.9   338     7.8   965.2    0.00 
 341   17:20   0.00   50.8    60    3.8   342     8.3   965.1    0.00 
 341   17:30   0.00   51.0    60    3.6   311     8.8   965.0    0.00 
 341   17:40   0.00   51.0    60    2.3   150     4.7   965.0    0.00 
 341   17:50   0.00   51.1    59    4.2   281    11.0   965.0    0.00 
 341   18:00   0.00   52.0    58    6.7   264    20.5   965.0    0.00 
 341   18:10   0.00   51.4    59    5.5   254    15.1   965.1    0.00 
 341   18:20   0.00   52.5    57    7.7   331    18.6   965.2    0.00 
 341   18:30   0.00   52.3    59    7.5   347    14.6   965.3    0.00 
 341   18:40   0.00   52.2    60    9.5   347    19.2   965.2    0.00 
 341   18:50   0.00   51.9    62   11.3   348    20.4   965.0    0.00 
 341   19:00   0.00   51.6    64   10.5   352    18.9   965.1    0.00 
 341   19:10   0.00   51.2    64    9.4   360    15.6   965.1    0.00 
 341   19:20   0.00   50.8    64    7.5   353    12.8   965.3    0.00 
 341   19:30   0.00   50.7    62    8.7   357    15.7   965.3    0.00 
 341   19:40   0.00   50.5    60    8.8   358    12.6   965.2    0.00 
 341   19:50   0.00   50.5    60    8.7     7    14.9   965.2    0.00 
 341   20:00   0.00   50.5    58    8.7     7    13.2   965.2    0.00 
 341   20:10   0.00   50.5    57    9.2     9    14.0   965.3    0.00 
 341   20:20   0.00   50.7    57    7.8    10    15.2   965.4    0.00 
 341   20:30   0.00   49.7    62    9.4    12    13.4   965.3    0.00 
 341   20:40   0.00   49.6    61    6.6   357    10.7   965.4    0.00 
 341   20:50   0.00   50.2    55    8.2   337    16.7   965.4    0.00 
 341   21:00   0.00   51.3    50    5.3   313    12.3   965.6    0.00 
 341   21:10   0.00   51.2    48    6.7   275    12.6   965.7    0.00 
 341   21:20   0.00   51.6    47    5.4   297    10.6   965.9    0.00 
 341   21:30   0.00   50.1    57    3.0    22     7.2   966.0    0.00 
 341   21:40   0.00   49.2    65    3.6    33     6.6   966.1    0.00 
 341   21:50   0.00   49.8    56    7.8   328    14.8   966.0    0.00 
 341   22:00   0.00   50.6    54    8.4   339    14.0   966.1    0.00 
 341   22:10   0.00   50.3    58   10.7   342    16.7   966.1    0.00 
 341   22:20   0.00   49.3    65    8.7   338    15.5   966.1    0.00 
 341   22:30   0.00   48.7    69    7.3   352    14.5   966.3    0.00 
 341   22:40   0.00   48.5    71    8.1   344    13.7   966.3    0.00 
 341   22:50   0.00   48.3    72    7.7   350    12.9   966.4    0.00 
 341   23:00   0.00   48.0    74    7.5     3    11.5   966.3    0.00 
 341   23:10   0.00   48.1    73    7.9   355    13.1   966.2    0.00 
 341   23:20   0.00   47.9    72    9.3   358    15.8   966.1    0.00 
 341   23:30   0.00   49.4    58   10.3   345    16.4   966.1    0.00 
 341   23:40   0.00   51.1    51   12.9   328    18.8   966.1    0.00 
 341   23:50   0.00   51.3    52   11.1   328    16.9   966.1    0.00 
 342    0:00   0.00   50.9    53    9.3   343    14.4   966.1    0.00 
 342    0:10   0.00   50.2    55    8.1   347    14.8   966.1    0.00 
 342    0:20   0.00   49.8    56    7.2   327    12.1   966.2    0.00 
 342    0:30   0.00   49.5    56    4.4   315    10.4   966.2    0.00 
 342    0:40   0.00   49.5    55    3.0   287     5.4   966.2    0.00 
 342    0:50   0.00   50.4    52    1.9   253     3.4   966.2    0.00 
 342    1:00   0.00   50.5    50    4.2   319     8.7   966.2    0.00 
 342    1:10   0.00   51.3    46    8.1   337    11.5   966.4    0.00 
 342    1:20   0.00   51.6    46    9.0   340    13.8   966.4    0.00 
 342    1:30   0.00   51.4    47    9.2   332    12.3   966.5    0.00 
 342    1:40   0.00   51.3    47    9.4   329    12.7   966.6    0.00 
 342    1:50   0.00   50.7    48    9.2   341    12.2   966.4    0.00 
 342    2:00   0.00   50.2    48    8.7   336    12.1   966.5    0.00 
 342    2:10   0.00   50.3    47    8.4   326    10.6   966.5    0.00 
 342    2:20   0.00   50.6    46    8.9   337    10.7   966.6    0.00 
 342    2:30   0.00   49.9    48    7.3   360    10.1   966.6    0.00 
 342    2:40   0.00   49.3    49    6.4   357     8.4   966.6    0.00 
 342    2:50   0.00   49.2    49    5.1     9     6.4   966.6    0.00 
 342    3:00   0.00   49.4    48    5.1   340     8.7   966.7    0.00 
 342    3:10   0.00   50.1    45    5.6   321     8.5   966.7    0.00 
 342    3:20   0.00   50.2    44    5.7   329     9.8   966.7    0.00 
 342    3:30   0.00   50.1    44    4.5   348     8.7   966.7    0.00 
 342    3:40   0.00   49.3    45    4.2   347     7.5   966.7    0.00 
 342    3:50   0.00   48.9    45    5.2   348     9.1   966.5    0.00 
 342    4:00   0.00   48.5    48    5.8    10     9.6   966.4    0.00 
 342    4:10   0.00   47.5    54    5.8   359     9.1   966.4    0.00 
 342    4:20   0.00   47.6    52    4.6   296     7.4   966.4    0.00 
 342    4:30   0.00   47.9    54    4.0   321     6.0   966.3    0.00 
 342    4:40   0.00   47.5    59    4.0    17     6.6   966.2    0.00 
 342    4:50   0.00   46.7    66    4.4    27     6.4   966.2    0.00 
 342    5:00   0.00   46.4    66    3.2   328     7.2   966.3    0.00 
 342    5:10   0.00   47.0    63    4.6   236     6.7   966.4    0.00 
 342    5:20   0.00   47.4    57    2.9   261     6.8   966.5    0.00 
 342    5:30   0.00   48.8    47    2.6    12     4.8   966.4    0.00 
 342    5:40   0.00   48.5    50    4.9    36     7.2   966.5    0.00 
 342    5:50   0.00   47.5    58    6.1    34     7.7   966.6    0.00 
 342    6:00   0.00   46.6    64    2.9    34     5.1   966.7    0.00 
 342    6:10   0.00   46.9    61    3.5     1     5.8   966.8    0.00 
 342    6:20   0.00   47.4    57    5.7   346     8.9   966.9    0.00 
 342    6:30   0.00   49.3    44    8.2   318    12.3   966.9    0.00 
 342    6:40   0.00   49.5    43    8.4   317    11.4   966.9    0.00 
 342    6:50   0.00   49.2    45    4.3   349     7.0   967.0    0.00 
 342    7:00   0.00   49.4    44    5.3   323     7.1   967.1    0.00 
 342    7:10   0.01   49.1    48    5.8     7     7.0   967.3    0.00 
 342    7:20   0.03   47.2    58    6.0    33     7.5   967.4    0.00 
 342    7:30   0.06   47.6    55    6.2    16     7.7   967.4    0.00 
 342    7:40   0.07   49.2    49    6.9     3     8.8   967.5    0.00 
 342    7:50   0.07   48.8    52    6.9    13     8.3   967.7    0.00 
 342    8:00   0.07   47.8    60    7.5    30     9.1   967.9    0.00 
 342    8:10   0.08   47.5    65    8.2    36    12.2   968.0    0.00 
 342    8:20   0.09   47.4    70    9.9    37    12.7   968.2    0.00 
 342    8:30   0.12   47.4    74    9.7    36    12.3   968.4    0.00 
 342    8:40   0.09   47.6    74    7.1    45     9.4   968.6    0.00 
 342    8:50   0.08   47.5    75    6.4    36     8.0   968.8    0.00 
 342    9:00   0.08   47.6    72    5.2    38     6.8   969.1    0.00 
 342    9:10   0.08   47.9    74    3.8    40     6.1   969.1    0.00 
 342    9:20   0.19   48.5    71    3.7    52     5.2   969.2    0.00 
 342    9:30   0.12   49.8    65    3.9    53     5.3   969.4    0.00 
 342    9:40   0.21   50.6    63    3.2    50     4.7   969.4    0.00 
 342    9:50   0.27   51.5    60    3.5    43     5.1   969.6    0.00 
 342   10:00   0.37   52.5    58    4.1    36     7.0   969.8    0.00 
 342   10:10   0.44   53.6    59    5.1    42     7.7   969.8    0.00 
 342   10:20   0.47   55.0    56    6.1    34    10.1   969.9    0.00 
 342   10:30   0.48   54.3    57    7.6    32    11.5   969.8    0.00 
 342   10:40   0.49   54.8    58    6.3    39    11.2   969.6    0.00 
 342   10:50   0.50   56.8    56    4.4    52     8.4   969.5    0.00 
 342   11:00   0.44   57.3    56    3.1    51     5.2   969.5    0.00 
 342   11:10   0.51   58.2    55    2.3   111     5.5   969.4    0.00 
 342   11:20   0.53   59.8    52    2.0   150     5.6   969.4    0.00 
 342   11:30   0.53   60.2    51    3.3   183     8.3   969.5    0.00 
 342   11:40   0.54   59.1    54    2.3   105     6.5   969.4    0.00 
 342   11:50   0.54   59.9    52    2.9    61     4.5   969.2    0.00 
 342   12:00   0.54   61.3    50    3.1    64     6.4   968.8    0.00 
 342   12:10   0.52   62.2    50    2.5    51     4.7   968.6    0.00 
 342   12:20   0.58   62.1    50    3.5    39     6.4   968.5    0.00 
 342   12:30   0.51   60.0    53    5.3    36     9.5   968.6    0.00 

Return to Valley Peak, Santa Cruz Island Reserve graphs page.


Western Regional Climate Center,wrcc@dri.edu